Time;durP1;ratioP1;P1;durP2;ratioP2;P2;SDS_P1;SDS_P2;PMS_P1;PMS_P2;Temp;Humidity;BMP_temperature;BMP_pressure;BME280_temperature;BME280_humidity;BME280_pressure;Samples;Min_cycle;Max_cycle;Signal;HPM_P1;HPM_P2
2021/10/23 00:00:34;;;;;;;3.40;1.05;;;19.50;50.40;;;;;;5052671;28;20029;-54
2021/10/23 00:03:00;;;;;;;3.53;1.30;;;19.50;50.40;;;;;;5052537;28;20044;-53
2021/10/23 00:05:26;;;;;;;5.35;1.45;;;19.50;50.50;;;;;;5052698;28;20025;-53
2021/10/23 00:07:51;;;;;;;3.88;1.30;;;19.50;50.40;;;;;;5052670;28;20040;-55
2021/10/23 00:10:17;;;;;;;3.85;1.25;;;19.40;50.40;;;;;;5052508;28;20025;-56
2021/10/23 00:12:43;;;;;;;2.70;1.20;;;19.50;50.40;;;;;;5051240;28;20036;-54
2021/10/23 00:15:09;;;;;;;2.67;1.02;;;19.50;50.40;;;;;;5052708;28;20071;-56
2021/10/23 00:17:35;;;;;;;3.13;1.20;;;19.50;50.40;;;;;;5051140;28;20392;-54
2021/10/23 00:20:02;;;;;;;3.40;1.15;;;19.50;50.40;;;;;;5052361;28;20083;-54
2021/10/23 00:22:28;;;;;;;3.80;1.65;;;19.50;50.40;;;;;;5052808;28;20029;-52
2021/10/23 00:24:54;;;;;;;3.85;1.30;;;19.40;50.40;;;;;;5056596;28;20108;-56
2021/10/23 00:27:20;;;;;;;4.13;1.48;;;19.40;50.40;;;;;;5056280;28;20112;-58
2021/10/23 00:29:46;;;;;;;4.55;1.50;;;19.40;50.40;;;;;;5056230;28;20507;-55
2021/10/23 00:32:11;;;;;;;4.18;1.10;;;19.40;50.40;;;;;;5054795;28;20021;-56
2021/10/23 00:34:37;;;;;;;3.85;1.08;;;19.40;50.40;;;;;;5056403;28;20075;-55
2021/10/23 00:37:03;;;;;;;3.90;1.20;;;19.40;50.40;;;;;;5056253;28;20120;-54
2021/10/23 00:39:28;;;;;;;3.17;1.35;;;19.40;50.40;;;;;;5056186;28;20112;-57
2021/10/23 00:41:54;;;;;;;3.63;1.15;;;19.40;50.40;;;;;;5055828;28;20049;-52
2021/10/23 00:44:27;;;;;;;5.88;1.55;;;19.40;50.40;;;;;;5055908;28;20440;-55
2021/10/23 00:46:52;;;;;;;4.13;1.30;;;19.40;50.40;;;;;;5056080;28;20082;-56
2021/10/23 00:49:18;;;;;;;3.50;1.10;;;19.40;50.40;;;;;;5055920;28;20103;-53
2021/10/23 00:51:43;;;;;;;3.53;1.23;;;19.40;50.30;;;;;;5055851;28;20480;-55
2021/10/23 00:54:09;;;;;;;6.05;1.42;;;19.40;50.30;;;;;;5055680;28;20468;-57
2021/10/23 00:56:35;;;;;;;2.45;1.25;;;19.40;50.40;;;;;;5055743;28;20079;-57
2021/10/23 00:59:01;;;;;;;2.65;1.17;;;19.40;50.40;;;;;;5055589;28;20041;-53
2021/10/23 01:01:27;;;;;;;4.00;1.20;;;19.40;50.30;;;;;;5055303;28;20094;-54
2021/10/23 01:03:52;;;;;;;3.72;1.40;;;19.40;50.30;;;;;;5055479;28;20032;-52
2021/10/23 01:06:19;;;;;;;3.17;1.23;;;19.40;50.30;;;;;;5055628;28;20021;-54
2021/10/23 01:08:45;;;;;;;3.65;1.20;;;19.40;50.30;;;;;;5055467;28;20057;-53
2021/10/23 01:11:11;;;;;;;4.18;1.30;;;19.40;50.20;;;;;;5055412;28;20080;-55
2021/10/23 01:13:36;;;;;;;4.53;1.30;;;19.40;50.30;;;;;;5055120;28;20060;-54
2021/10/23 01:16:02;;;;;;;2.88;1.00;;;19.40;50.20;;;;;;5055256;28;20032;-56
2021/10/23 01:18:27;;;;;;;2.20;1.08;;;19.40;50.30;;;;;;5055232;28;20017;-53
2021/10/23 01:20:53;;;;;;;4.30;1.38;;;19.40;50.20;;;;;;5055184;28;20036;-57
2021/10/23 01:23:18;;;;;;;3.53;1.23;;;19.30;50.30;;;;;;5055067;28;20033;-57
2021/10/23 01:25:44;;;;;;;3.63;1.33;;;19.30;50.30;;;;;;5055214;28;20028;-58
2021/10/23 01:28:10;;;;;;;5.50;1.50;;;19.30;50.30;;;;;;5055059;28;20025;-56
2021/10/23 01:30:36;;;;;;;3.58;1.30;;;19.30;50.30;;;;;;5055219;28;20052;-51
2021/10/23 01:33:02;;;;;;;3.00;1.02;;;19.30;50.20;;;;;;5054971;28;20039;-52
2021/10/23 01:35:28;;;;;;;3.20;1.20;;;19.40;50.20;;;;;;5054852;28;20029;-56
2021/10/23 01:37:55;;;;;;;3.47;1.30;;;19.30;50.20;;;;;;5055062;28;20025;-58
2021/10/23 01:40:27;;;;;;;4.28;1.15;;;19.30;50.30;;;;;;5054842;28;20095;-54
2021/10/23 01:42:53;;;;;;;3.35;1.13;;;19.30;50.20;;;;;;5055000;28;20116;-58
2021/10/23 01:45:19;;;;;;;4.47;1.35;;;19.40;50.20;;;;;;5054975;28;20021;-58
2021/10/23 01:47:44;;;;;;;3.63;1.30;;;19.30;50.20;;;;;;5054835;28;20029;-53
2021/10/23 01:50:16;;;;;;;3.53;1.50;;;19.40;50.20;;;;;;5055000;28;20021;-55
2021/10/23 01:52:41;;;;;;;4.78;1.25;;;19.40;50.10;;;;;;5054631;28;20477;-55
2021/10/23 01:55:12;;;;;;;4.65;1.35;;;19.40;50.20;;;;;;5054626;28;20025;-55
2021/10/23 01:57:39;;;;;;;3.50;1.40;;;19.40;50.20;;;;;;5054516;28;20071;-54
2021/10/23 02:00:05;;;;;;;3.35;1.27;;;19.30;50.20;;;;;;5054789;28;20349;-55
2021/10/23 02:02:31;;;;;;;2.72;0.90;;;19.30;50.20;;;;;;5054362;28;20024;-56
2021/10/23 02:04:56;;;;;;;3.15;1.33;;;19.30;50.20;;;;;;5054449;28;20495;-57
2021/10/23 02:07:22;;;;;;;3.63;1.20;;;19.40;50.20;;;;;;5054575;28;20033;-55
2021/10/23 02:09:48;;;;;;;3.88;1.50;;;19.30;50.20;;;;;;5054253;28;20032;-56
2021/10/23 02:12:13;;;;;;;2.92;1.33;;;19.30;50.20;;;;;;5054187;28;20032;-56
2021/10/23 02:14:39;;;;;;;3.65;1.52;;;19.30;50.20;;;;;;5054350;28;20587;-54
2021/10/23 02:17:04;;;;;;;3.15;0.98;;;19.30;50.20;;;;;;5054159;28;20052;-56
2021/10/23 02:19:30;;;;;;;4.97;1.55;;;19.30;50.10;;;;;;5053121;28;20385;-56
2021/10/23 02:21:56;;;;;;;3.13;1.27;;;19.30;50.20;;;;;;5053994;28;20063;-58
2021/10/23 02:24:22;;;;;;;3.17;1.00;;;19.40;50.10;;;;;;5054054;28;20485;-54
2021/10/23 02:26:48;;;;;;;3.85;1.35;;;19.30;50.20;;;;;;5053884;28;20108;-56
2021/10/23 02:29:14;;;;;;;3.17;1.27;;;19.30;50.30;;;;;;5053887;28;20469;-57
2021/10/23 02:31:39;;;;;;;2.90;1.10;;;19.30;50.20;;;;;;5054037;28;20029;-57
2021/10/23 02:34:05;;;;;;;3.92;1.40;;;19.30;50.20;;;;;;5053970;28;20017;-55
2021/10/23 02:36:31;;;;;;;6.10;1.27;;;19.30;50.20;;;;;;5053861;28;20488;-51
2021/10/23 02:38:57;;;;;;;4.15;1.55;;;19.30;50.20;;;;;;5053761;28;20021;-55
2021/10/23 02:41:24;;;;;;;4.15;1.33;;;19.30;50.20;;;;;;5053424;28;20515;-55
2021/10/23 02:43:53;;;;;;;3.47;0.90;;;19.30;50.20;;;;;;5053644;28;20508;-54
2021/10/23 02:46:20;;;;;;;5.18;1.10;;;19.30;50.20;;;;;;5053116;28;20025;-56
2021/10/23 02:48:46;;;;;;;3.60;1.00;;;19.30;50.10;;;;;;5053601;28;20380;-55
2021/10/23 02:51:11;;;;;;;5.47;1.48;;;19.30;50.10;;;;;;5053486;28;20021;-54
2021/10/23 02:53:37;;;;;;;3.28;1.15;;;19.30;50.20;;;;;;5053449;28;20040;-58
2021/10/23 02:56:02;;;;;;;3.22;1.27;;;19.30;50.10;;;;;;5053452;28;20463;-56
2021/10/23 02:58:28;;;;;;;3.60;1.30;;;19.30;50.10;;;;;;5052048;28;20106;-58
2021/10/23 03:00:54;;;;;;;4.15;1.45;;;19.30;50.20;;;;;;5053375;28;20033;-55
2021/10/23 03:03:19;;;;;;;4.30;1.38;;;19.30;50.20;;;;;;5053386;28;20107;-57
2021/10/23 03:05:46;;;;;;;4.15;1.70;;;19.30;50.20;;;;;;5053210;28;20120;-54
2021/10/23 03:08:12;;;;;;;4.13;1.50;;;19.30;50.10;;;;;;5053212;28;20522;-57
2021/10/23 03:10:38;;;;;;;8.73;1.40;;;19.30;50.20;;;;;;5053436;28;20064;-58
2021/10/23 03:13:03;;;;;;;4.43;1.75;;;19.30;50.10;;;;;;5053415;28;20110;-59
2021/10/23 03:15:29;;;;;;;5.22;1.80;;;19.20;50.20;;;;;;5053157;28;20021;-54
2021/10/23 03:17:54;;;;;;;3.20;1.42;;;19.30;50.20;;;;;;5053393;28;20020;-53
2021/10/23 03:20:20;;;;;;;4.50;1.60;;;19.30;50.20;;;;;;5052946;28;20033;-57
2021/10/23 03:22:46;;;;;;;4.28;1.60;;;19.30;50.20;;;;;;5053035;28;20029;-55
2021/10/23 03:25:11;;;;;;;5.68;1.60;;;19.30;50.20;;;;;;5052884;28;20056;-55
2021/10/23 03:27:37;;;;;;;5.20;1.83;;;19.30;50.20;;;;;;5052859;28;20029;-56
2021/10/23 03:30:05;;;;;;;5.57;2.10;;;19.20;50.20;;;;;;5051818;28;20062;-54
2021/10/23 03:32:31;;;;;;;5.47;1.88;;;19.30;50.20;;;;;;5052780;28;20029;-55
2021/10/23 03:34:59;;;;;;;5.75;2.05;;;19.30;50.20;;;;;;5052769;28;20201;-59
2021/10/23 03:37:29;;;;;;;4.53;1.67;;;19.30;50.20;;;;;;5052736;28;20492;-58
2021/10/23 03:39:55;;;;;;;6.05;2.50;;;19.30;50.20;;;;;;5052770;28;20033;-55
2021/10/23 03:42:20;;;;;;;4.82;1.90;;;19.30;50.10;;;;;;5053027;28;20040;-58
2021/10/23 03:44:46;;;;;;;6.00;2.08;;;19.30;50.20;;;;;;5052841;28;20021;-57
2021/10/23 03:47:12;;;;;;;6.03;2.13;;;19.30;50.10;;;;;;5052709;28;20036;-57
2021/10/23 03:49:37;;;;;;;5.47;2.03;;;19.30;50.20;;;;;;5052774;28;20029;-56
2021/10/23 03:52:03;;;;;;;5.63;1.92;;;19.30;50.10;;;;;;5052640;28;20025;-54
2021/10/23 03:54:29;;;;;;;4.97;1.73;;;19.30;50.20;;;;;;5052710;28;20053;-55
2021/10/23 03:56:54;;;;;;;5.80;2.22;;;19.30;50.10;;;;;;5053689;28;20525;-57
2021/10/23 03:59:20;;;;;;;4.57;1.80;;;19.30;50.10;;;;;;5056719;28;20420;-56
2021/10/23 04:01:45;;;;;;;5.22;2.10;;;19.30;50.10;;;;;;5056617;28;20472;-57
2021/10/23 04:04:11;;;;;;;6.55;2.10;;;19.30;50.20;;;;;;5056914;28;20108;-58
2021/10/23 04:06:37;;;;;;;3.30;1.50;;;19.30;50.20;;;;;;5056523;28;20029;-55
2021/10/23 04:09:03;;;;;;;9.07;2.30;;;19.20;50.20;;;;;;5056584;28;20040;-58
2021/10/23 04:11:29;;;;;;;7.15;1.95;;;19.20;50.20;;;;;;5056644;28;20118;-55
2021/10/23 04:13:54;;;;;;;5.63;2.15;;;19.20;50.20;;;;;;5056446;28;20465;-56
2021/10/23 04:16:20;;;;;;;5.63;1.77;;;19.20;50.20;;;;;;5056371;28;20037;-59
2021/10/23 04:18:45;;;;;;;5.90;1.85;;;19.20;50.20;;;;;;5056597;28;20013;-55
2021/10/23 04:21:13;;;;;;;5.53;1.98;;;19.30;50.20;;;;;;5056244;28;20033;-56
2021/10/23 04:23:39;;;;;;;3.70;1.70;;;19.30;50.10;;;;;;5056490;28;20025;-57
2021/10/23 04:26:05;;;;;;;5.10;1.60;;;19.20;50.10;;;;;;5054941;28;20036;-56
2021/10/23 04:28:30;;;;;;;4.28;1.90;;;19.30;50.10;;;;;;5056477;28;20021;-56
2021/10/23 04:30:56;;;;;;;5.05;1.88;;;19.30;50.10;;;;;;5056109;28;20017;-56
2021/10/23 04:33:21;;;;;;;4.68;1.92;;;19.30;50.00;;;;;;5056110;28;20036;-55
2021/10/23 04:35:47;;;;;;;3.72;1.65;;;19.30;50.10;;;;;;5056011;28;20036;-56
2021/10/23 04:38:12;;;;;;;6.93;1.83;;;19.30;50.00;;;;;;5056085;28;20025;-55
2021/10/23 04:40:39;;;;;;;4.80;1.92;;;19.30;50.00;;;;;;5055730;28;20091;-54
2021/10/23 04:43:04;;;;;;;6.15;2.30;;;19.30;50.00;;;;;;5055934;28;20454;-59
2021/10/23 04:45:30;;;;;;;7.70;2.22;;;19.40;50.00;;;;;;5055917;28;20021;-58
2021/10/23 04:47:56;;;;;;;6.05;1.95;;;19.40;50.00;;;;;;5055867;28;20063;-57
2021/10/23 04:50:21;;;;;;;4.70;1.95;;;19.40;50.00;;;;;;5056038;28;20033;-55
2021/10/23 04:52:47;;;;;;;6.20;2.40;;;19.40;49.90;;;;;;5055726;28;20548;-57
2021/10/23 04:55:12;;;;;;;6.35;2.22;;;19.40;49.90;;;;;;5055734;28;20032;-53
2021/10/23 04:57:38;;;;;;;5.90;2.22;;;19.40;49.90;;;;;;5055742;28;20064;-55
2021/10/23 05:00:05;;;;;;;5.97;1.95;;;19.40;49.90;;;;;;5054551;28;20446;-54
2021/10/23 05:02:30;;;;;;;4.28;1.70;;;19.40;50.00;;;;;;5055421;28;20057;-53
2021/10/23 05:04:56;;;;;;;5.57;2.13;;;19.40;50.00;;;;;;5055505;28;20053;-55
2021/10/23 05:07:21;;;;;;;5.00;1.92;;;19.40;50.00;;;;;;5055451;28;20029;-56
2021/10/23 05:09:47;;;;;;;5.47;2.00;;;19.40;50.00;;;;;;5054657;28;20025;-57
2021/10/23 05:12:12;;;;;;;5.63;2.08;;;19.40;50.00;;;;;;5055405;28;20057;-55
2021/10/23 05:14:38;;;;;;;5.93;2.35;;;19.40;49.90;;;;;;5055276;28;20036;-56
2021/10/23 05:17:03;;;;;;;6.20;2.35;;;19.40;50.00;;;;;;5055380;28;20412;-54
2021/10/23 05:19:29;;;;;;;6.82;2.53;;;19.40;49.90;;;;;;5055260;28;20021;-58
2021/10/23 05:21:55;;;;;;;6.00;2.50;;;19.40;50.00;;;;;;5055213;28;20033;-56
2021/10/23 05:24:21;;;;;;;5.93;2.42;;;19.40;50.00;;;;;;5055472;28;20059;-58
2021/10/23 05:26:47;;;;;;;5.20;2.17;;;19.40;49.90;;;;;;5055397;28;20040;-56
2021/10/23 05:29:13;;;;;;;4.82;1.98;;;19.50;50.00;;;;;;5055086;28;20032;-57
2021/10/23 05:31:39;;;;;;;6.03;2.38;;;19.50;50.00;;;;;;5055053;28;20036;-58
2021/10/23 05:34:04;;;;;;;5.82;2.28;;;19.50;50.00;;;;;;5054975;28;20032;-56
2021/10/23 05:36:30;;;;;;;6.13;2.35;;;19.50;49.90;;;;;;5055000;28;20033;-56
2021/10/23 05:38:56;;;;;;;6.55;2.42;;;19.50;50.00;;;;;;5055196;28;20021;-55
2021/10/23 05:41:21;;;;;;;4.82;2.13;;;19.40;49.90;;;;;;5054679;28;20060;-56
2021/10/23 05:43:47;;;;;;;7.22;2.38;;;19.50;50.00;;;;;;5054816;28;20108;-58
2021/10/23 05:46:13;;;;;;;5.53;2.50;;;19.50;49.90;;;;;;5055020;28;20428;-58
2021/10/23 05:48:39;;;;;;;6.45;2.60;;;19.50;49.90;;;;;;5054752;28;20035;-56
2021/10/23 05:51:04;;;;;;;6.60;2.22;;;19.50;49.90;;;;;;5054707;28;20016;-59
2021/10/23 05:53:30;;;;;;;6.15;2.25;;;19.50;49.90;;;;;;5054622;28;20354;-56
2021/10/23 05:55:56;;;;;;;6.32;2.72;;;19.50;49.90;;;;;;5054783;28;20065;-56
2021/10/23 05:58:21;;;;;;;6.85;2.58;;;19.50;50.00;;;;;;5054493;28;20049;-56
2021/10/23 06:00:52;;;;;;;7.22;2.97;;;19.50;50.00;;;;;;5054436;28;20044;-55
2021/10/23 06:03:20;;;;;;;6.18;2.47;;;19.50;49.90;;;;;;5054435;28;20021;-59
2021/10/23 06:05:46;;;;;;;6.68;2.70;;;19.50;49.90;;;;;;5054646;28;20106;-55
2021/10/23 06:08:12;;;;;;;6.10;2.30;;;19.50;49.90;;;;;;5054292;28;20497;-54
2021/10/23 06:10:38;;;;;;;6.43;2.83;;;19.50;50.00;;;;;;5054251;28;20025;-58
2021/10/23 06:13:03;;;;;;;5.93;2.60;;;19.50;50.00;;;;;;5054432;28;20025;-56
2021/10/23 06:15:29;;;;;;;6.38;2.75;;;19.50;50.00;;;;;;5054273;28;20476;-56
2021/10/23 06:17:54;;;;;;;6.30;2.63;;;19.50;49.90;;;;;;5054151;28;20170;-54
2021/10/23 06:20:20;;;;;;;6.07;2.30;;;19.50;49.90;;;;;;5053131;28;20388;-58
2021/10/23 06:22:51;;;;;;;7.40;2.53;;;19.50;50.00;;;;;;5054156;28;20464;-58
2021/10/23 06:25:18;;;;;;;5.90;2.40;;;19.50;49.90;;;;;;5054000;28;20387;-51
2021/10/23 06:27:45;;;;;;;6.07;2.67;;;19.50;49.90;;;;;;5053914;28;20059;-56
2021/10/23 06:30:11;;;;;;;5.72;2.40;;;19.50;50.00;;;;;;5053788;28;20469;-56
2021/10/23 06:32:50;;;;;;;6.45;2.90;;;19.50;49.90;;;;;;5054098;28;20082;-54
2021/10/23 06:35:16;;;;;;;7.18;3.42;;;19.50;50.00;;;;;;5053935;28;20384;-53
2021/10/23 06:37:42;;;;;;;7.00;2.80;;;19.60;49.90;;;;;;5053970;28;20432;-55
2021/10/23 06:40:09;;;;;;;8.02;3.22;;;19.50;49.90;;;;;;5053419;28;20036;-56
2021/10/23 06:42:36;;;;;;;8.32;3.03;;;19.50;49.90;;;;;;5053611;28;20128;-55
2021/10/23 06:45:03;;;;;;;6.85;2.70;;;19.50;49.90;;;;;;5053724;28;20032;-56
2021/10/23 06:47:28;;;;;;;8.55;2.92;;;19.50;49.90;;;;;;5053466;28;20061;-56
2021/10/23 06:49:55;;;;;;;8.25;3.03;;;19.50;49.90;;;;;;5052286;28;20057;-55
2021/10/23 06:52:20;;;;;;;6.65;2.60;;;19.50;49.90;;;;;;5052143;28;20473;-56
2021/10/23 06:54:49;;;;;;;6.95;2.80;;;19.50;49.90;;;;;;5053559;28;20032;-56
2021/10/23 06:57:15;;;;;;;6.72;2.90;;;19.60;49.90;;;;;;5052146;28;20102;-54
2021/10/23 06:59:40;;;;;;;5.80;2.78;;;19.50;49.90;;;;;;5052006;28;20075;-56
2021/10/23 07:02:06;;;;;;;8.63;3.47;;;19.60;49.90;;;;;;5051745;28;20037;-54
2021/10/23 07:04:31;;;;;;;7.10;3.10;;;19.60;49.90;;;;;;5053281;28;20031;-56
2021/10/23 07:06:57;;;;;;;8.27;3.30;;;19.60;49.90;;;;;;5053125;28;20389;-57
2021/10/23 07:09:22;;;;;;;7.97;3.25;;;19.60;49.90;;;;;;5053060;28;20046;-57
2021/10/23 07:11:48;;;;;;;6.97;3.13;;;19.60;49.90;;;;;;5053336;28;20051;-55
2021/10/23 07:14:14;;;;;;;7.70;3.55;;;19.60;49.90;;;;;;5053107;28;20025;-54
2021/10/23 07:16:40;;;;;;;8.35;3.15;;;19.60;49.90;;;;;;5053055;28;20373;-55
2021/10/23 07:19:06;;;;;;;6.32;2.97;;;19.60;49.90;;;;;;5053053;28;20028;-55
2021/10/23 07:21:31;;;;;;;7.47;3.38;;;19.60;49.90;;;;;;5052927;28;20036;-55
2021/10/23 07:23:59;;;;;;;8.20;3.47;;;19.60;49.90;;;;;;5052913;28;20029;-56
2021/10/23 07:26:24;;;;;;;8.05;3.20;;;19.60;49.90;;;;;;5051601;28;20024;-54
2021/10/23 07:28:50;;;;;;;7.30;3.22;;;19.60;49.90;;;;;;5051613;28;20048;-54
2021/10/23 07:31:15;;;;;;;8.48;3.05;;;19.60;49.90;;;;;;5052404;28;20025;-55
2021/10/23 07:33:41;;;;;;;7.72;3.25;;;19.60;49.80;;;;;;5052799;28;20029;-57
2021/10/23 07:36:06;;;;;;;7.38;3.47;;;19.60;49.90;;;;;;5052770;28;20025;-56
2021/10/23 07:38:32;;;;;;;7.97;3.80;;;19.60;49.90;;;;;;5052995;28;20045;-53
2021/10/23 07:40:58;;;;;;;7.45;3.40;;;19.60;49.90;;;;;;5051235;28;20174;-58
2021/10/23 07:43:24;;;;;;;8.80;3.78;;;19.60;49.90;;;;;;5052759;28;20051;-58
2021/10/23 07:45:51;;;;;;;7.35;3.30;;;19.60;49.80;;;;;;5052589;28;20025;-55
2021/10/23 07:48:17;;;;;;;7.80;3.47;;;19.70;49.80;;;;;;5052628;28;20025;-55
2021/10/23 07:50:43;;;;;;;7.72;3.67;;;19.70;49.80;;;;;;5052813;28;20079;-52
2021/10/23 07:53:08;;;;;;;7.43;3.20;;;19.70;49.80;;;;;;5052608;28;20025;-56
2021/10/23 07:55:34;;;;;;;8.13;3.80;;;19.70;49.80;;;;;;5052640;28;20455;-56
2021/10/23 07:58:00;;;;;;;7.80;3.72;;;19.70;49.90;;;;;;5052640;28;20079;-55
2021/10/23 08:00:26;;;;;;;7.75;3.55;;;19.70;49.80;;;;;;5052523;28;20021;-56
2021/10/23 08:02:59;;;;;;;6.72;3.22;;;19.70;49.80;;;;;;5052572;28;20056;-55
2021/10/23 08:05:31;;;;;;;8.30;3.80;;;19.70;49.90;;;;;;5052395;28;20025;-56
2021/10/23 08:07:57;;;;;;;7.63;3.80;;;19.70;49.80;;;;;;5052605;28;20117;-54
2021/10/23 08:10:24;;;;;;;7.32;3.35;;;19.70;49.80;;;;;;5052458;28;20455;-51
2021/10/23 08:12:51;;;;;;;7.93;3.65;;;19.70;49.80;;;;;;5052514;28;20426;-56
2021/10/23 08:15:17;;;;;;;10.90;4.50;;;19.70;49.80;;;;;;5052444;28;20070;-54
2021/10/23 08:17:43;;;;;;;7.28;3.53;;;19.70;49.80;;;;;;5052518;28;20039;-56
2021/10/23 08:20:10;;;;;;;9.43;4.20;;;19.70;49.80;;;;;;5051237;28;20480;-56
2021/10/23 08:22:36;;;;;;;8.77;3.67;;;19.70;49.80;;;;;;5052342;28;20037;-58
2021/10/23 08:25:04;;;;;;;8.57;3.97;;;19.70;49.80;;;;;;5052456;28;20047;-56
2021/10/23 08:27:32;;;;;;;8.57;3.70;;;19.70;49.80;;;;;;5052441;28;20029;-55
2021/10/23 08:30:00;;;;;;;8.25;3.72;;;19.80;49.70;;;;;;5052522;28;20021;-56
2021/10/23 08:32:26;;;;;;;10.15;4.30;;;19.80;49.70;;;;;;5052247;28;20024;-55
2021/10/23 08:34:51;;;;;;;9.93;4.15;;;19.70;49.80;;;;;;5052195;28;20376;-55
2021/10/23 08:37:17;;;;;;;9.30;3.88;;;19.70;49.90;;;;;;5052225;28;20017;-55
2021/10/23 08:39:43;;;;;;;10.25;4.78;;;19.70;49.90;;;;;;5052403;28;20037;-53
2021/10/23 08:42:09;;;;;;;8.93;3.80;;;19.70;49.90;;;;;;5052579;28;20377;-59
2021/10/23 08:44:37;;;;;;;7.95;3.70;;;19.80;49.80;;;;;;5054342;28;20385;-55
2021/10/23 08:47:05;;;;;;;9.57;4.10;;;19.80;49.70;;;;;;5055931;28;20032;-56
2021/10/23 08:49:31;;;;;;;9.02;4.10;;;19.80;49.80;;;;;;5056094;28;20033;-53
2021/10/23 08:51:58;;;;;;;9.57;4.18;;;19.80;49.70;;;;;;5055746;28;20381;-56
2021/10/23 08:54:24;;;;;;;8.68;4.00;;;19.80;49.80;;;;;;5055739;28;20032;-55
2021/10/23 08:56:50;;;;;;;8.95;4.20;;;19.80;49.70;;;;;;5055670;28;20031;-55
2021/10/23 08:59:15;;;;;;;7.90;4.28;;;19.80;49.80;;;;;;5055771;28;20017;-57
2021/10/23 09:01:41;;;;;;;8.13;4.20;;;19.80;49.80;;;;;;5055550;28;20405;-56
2021/10/23 09:04:06;;;;;;;7.75;3.72;;;19.80;49.70;;;;;;5055677;28;20032;-56
2021/10/23 09:06:35;;;;;;;8.90;3.92;;;19.80;49.80;;;;;;5054244;28;20029;-54
2021/10/23 09:09:10;;;;;;;8.80;4.05;;;19.80;49.80;;;;;;5055439;28;20028;-56
2021/10/23 09:11:38;;;;;;;9.63;4.55;;;19.80;49.70;;;;;;5055735;28;20023;-56
2021/10/23 09:14:31;;;;;;;9.05;4.15;;;19.90;49.80;;;;;;5055481;28;20029;-55
2021/10/23 09:17:07;;;;;;;8.70;3.70;;;19.80;49.80;;;;;;5055151;28;20020;-54
2021/10/23 09:19:42;;;;;;;9.90;4.28;;;19.80;49.80;;;;;;5055201;28;20040;-56
2021/10/23 09:22:25;;;;;;;9.07;4.40;;;19.90;49.80;;;;;;5055148;28;20043;-55
2021/10/23 09:24:52;;;;;;;8.32;4.07;;;19.90;49.70;;;;;;5055233;28;20020;-54
2021/10/23 09:27:19;;;;;;;9.43;4.35;;;19.90;49.60;;;;;;5055139;28;20461;-56
2021/10/23 09:29:51;;;;;;;10.40;4.93;;;19.90;49.60;;;;;;5054937;28;20428;-53
2021/10/23 09:32:17;;;;;;;9.13;4.47;;;19.90;49.70;;;;;;5054966;28;20123;-56
2021/10/23 09:34:43;;;;;;;8.45;3.95;;;19.90;49.70;;;;;;5054801;28;20103;-53
2021/10/23 09:37:09;;;;;;;11.20;4.70;;;19.90;49.70;;;;;;5054953;28;20017;-56
2021/10/23 09:39:35;;;;;;;9.18;3.97;;;19.90;49.60;;;;;;5054823;28;20032;-52
2021/10/23 09:42:18;;;;;;;10.02;4.13;;;20.00;49.60;;;;;;5054492;28;20052;-56
2021/10/23 09:45:03;;;;;;;10.10;4.07;;;19.90;49.70;;;;;;5054600;28;20116;-52
2021/10/23 09:47:44;;;;;;;10.07;4.68;;;20.00;49.60;;;;;;5054905;28;20057;-56
2021/10/23 09:50:21;;;;;;;9.35;4.88;;;20.00;49.60;;;;;;5054320;28;20116;-55
2021/10/23 09:52:59;;;;;;;9.88;4.20;;;20.00;49.60;;;;;;5054532;28;20025;-56
2021/10/23 09:55:30;;;;;;;8.88;4.20;;;20.00;49.60;;;;;;5054466;28;20029;-54
2021/10/23 09:58:26;;;;;;;10.20;4.40;;;20.00;49.60;;;;;;5054492;28;20380;-56
2021/10/23 10:00:55;;;;;;;7.78;3.88;;;20.00;49.60;;;;;;5048658;28;20043;-55
2021/10/23 10:03:29;;;;;;;8.90;4.25;;;20.00;49.60;;;;;;5054097;28;20354;-55
2021/10/23 10:06:00;;;;;;;9.77;4.40;;;20.00;49.70;;;;;;5054243;28;20021;-56
2021/10/23 10:08:29;;;;;;;10.07;5.00;;;20.00;49.70;;;;;;5054391;28;20455;-56
2021/10/23 10:10:56;;;;;;;10.48;5.05;;;19.90;49.70;;;;;;5054440;28;20071;-55
2021/10/23 10:13:24;;;;;;;10.15;4.55;;;19.90;49.80;;;;;;5053923;28;20040;-56
2021/10/23 10:16:02;;;;;;;9.95;4.65;;;19.90;49.80;;;;;;5054065;28;20046;-54
2021/10/23 10:18:28;;;;;;;9.15;4.30;;;19.90;49.80;;;;;;5054151;28;20069;-57
2021/10/23 10:20:56;;;;;;;12.32;4.13;;;19.90;49.80;;;;;;5053796;28;20041;-55
2021/10/23 10:23:39;;;;;;;7.95;4.22;;;19.80;49.80;;;;;;5053939;28;20078;-55
2021/10/23 10:26:14;;;;;;;9.45;4.43;;;19.90;49.80;;;;;;5053927;28;20033;-56
2021/10/23 10:32:14;;;;;;;9.25;4.53;;;19.80;49.80;;;;;;5053976;28;20037;-56
2021/10/23 10:34:44;;;;;;;8.38;4.20;;;19.80;49.80;;;;;;5053982;28;20040;-56
2021/10/23 10:42:53;;;;;;;9.63;4.70;;;19.80;49.90;;;;;;5053793;28;20033;-56
2021/10/23 10:45:46;;;;;;;9.93;4.63;;;19.80;49.80;;;;;;5053469;28;20021;-53
2021/10/23 10:48:18;;;;;;;10.00;4.53;;;19.80;49.90;;;;;;5053425;28;20453;-56
2021/10/23 10:50:47;;;;;;;8.63;4.35;;;19.80;49.90;;;;;;5053452;28;20112;-54
2021/10/23 10:53:17;;;;;;;9.13;4.50;;;19.90;49.80;;;;;;5053572;28;20423;-55
2021/10/23 10:55:44;;;;;;;8.75;4.40;;;19.90;49.70;;;;;;5053395;28;20350;-56
2021/10/23 10:58:10;;;;;;;8.50;4.05;;;20.00;49.60;;;;;;5053611;28;20028;-57
2021/10/23 11:00:45;;;;;;;9.20;4.63;;;20.00;49.60;;;;;;5053458;28;20423;-55
2021/10/23 11:03:35;;;;;;;11.32;4.90;;;20.00;49.40;;;;;;5053259;28;20032;-57
2021/10/23 11:06:35;;;;;;;9.02;4.40;;;20.10;49.30;;;;;;5052897;28;20423;-53
2021/10/23 11:09:12;;;;;;;9.52;4.43;;;20.20;49.00;;;;;;5053327;28;20021;-56
2021/10/23 11:11:44;;;;;;;9.00;4.32;;;20.30;48.90;;;;;;5053081;28;20028;-56
2021/10/23 11:14:24;;;;;;;10.63;4.82;;;20.30;48.80;;;;;;5053074;28;20104;-55
2021/10/23 11:16:57;;;;;;;11.65;4.63;;;20.40;48.70;;;;;;5053343;28;20036;-56
2021/10/23 11:19:34;;;;;;;8.90;4.38;;;20.40;48.70;;;;;;5053061;28;20031;-56
2021/10/23 11:22:03;;;;;;;11.40;5.00;;;20.50;48.60;;;;;;5053019;28;20055;-56
2021/10/23 11:24:30;;;;;;;9.60;4.47;;;20.50;48.40;;;;;;5053230;28;20036;-57
2021/10/23 11:26:56;;;;;;;9.65;4.20;;;20.60;48.40;;;;;;5053279;28;20397;-55
2021/10/23 11:29:22;;;;;;;8.25;4.22;;;20.50;48.40;;;;;;5052835;28;20487;-54
2021/10/23 11:31:49;;;;;;;9.55;4.35;;;20.60;48.40;;;;;;5052840;28;20032;-55
2021/10/23 11:34:23;;;;;;;8.95;4.30;;;20.60;48.30;;;;;;5053118;28;20112;-56
2021/10/23 11:37:07;;;;;;;9.43;4.32;;;20.70;48.30;;;;;;5052707;28;20030;-55
2021/10/23 11:39:55;;;;;;;9.15;4.13;;;20.60;48.40;;;;;;5053622;28;20400;-54
2021/10/23 11:42:22;;;;;;;9.90;4.90;;;20.60;48.50;;;;;;5051435;28;20044;-55
2021/10/23 11:45:07;;;;;;;9.70;4.53;;;20.60;48.60;;;;;;5052697;28;20120;-54
2021/10/23 11:47:32;;;;;;;9.18;4.53;;;20.50;48.70;;;;;;5052890;28;20117;-58
2021/10/23 11:50:00;;;;;;;9.32;4.28;;;20.50;48.70;;;;;;5052712;28;20342;-55
2021/10/23 11:52:30;;;;;;;9.98;4.32;;;20.50;48.80;;;;;;5052614;28;20017;-54
2021/10/23 11:54:58;;;;;;;8.73;4.13;;;20.40;48.90;;;;;;5052500;28;20028;-54
2021/10/23 11:57:56;;;;;;;9.25;4.40;;;20.40;49.00;;;;;;5052707;28;20029;-55
2021/10/23 12:00:22;;;;;;;10.85;4.35;;;20.40;49.10;;;;;;5048139;28;20116;-57
2021/10/23 12:02:58;;;;;;;10.05;4.50;;;20.40;49.10;;;;;;5052591;28;20144;-56
2021/10/23 12:05:27;;;;;;;8.85;4.40;;;20.30;49.30;;;;;;5052466;28;20025;-54
2021/10/23 12:08:29;;;;;;;10.40;4.43;;;20.30;49.20;;;;;;5052049;28;20025;-54
2021/10/23 12:11:26;;;;;;;9.82;4.53;;;20.30;49.30;;;;;;5052343;28;20025;-56
2021/10/23 12:14:05;;;;;;;10.00;4.40;;;20.20;49.40;;;;;;5052469;28;20586;-56
2021/10/23 12:16:49;;;;;;;9.95;4.25;;;20.20;49.40;;;;;;5052406;28;20017;-56
2021/10/23 12:19:22;;;;;;;10.82;4.88;;;20.20;49.50;;;;;;5054335;28;20107;-56
2021/10/23 12:22:08;;;;;;;9.48;4.47;;;20.20;49.50;;;;;;5056233;28;20238;-52
2021/10/23 12:24:43;;;;;;;9.10;4.05;;;20.20;49.50;;;;;;5054988;28;20029;-50
2021/10/23 12:27:26;;;;;;;8.45;3.83;;;20.20;49.50;;;;;;5056433;28;20070;-53
2021/10/23 12:30:02;;;;;;;9.55;4.65;;;20.10;49.60;;;;;;5056423;28;20104;-52
2021/10/23 12:32:27;;;;;;;9.60;4.65;;;20.10;49.60;;;;;;5056190;28;20507;-51
2021/10/23 12:34:56;;;;;;;9.43;3.85;;;20.10;49.70;;;;;;5056118;28;20112;-55
2021/10/23 12:37:27;;;;;;;9.38;4.63;;;20.10;49.70;;;;;;5056236;28;20029;-52
2021/10/23 12:40:08;;;;;;;10.02;4.43;;;20.10;49.70;;;;;;5055689;28;20028;-53
2021/10/23 12:42:46;;;;;;;10.32;4.57;;;20.10;49.70;;;;;;5055886;28;20118;-54
2021/10/23 12:45:14;;;;;;;9.75;4.30;;;20.00;49.70;;;;;;5055931;28;20017;-56
2021/10/23 12:47:40;;;;;;;8.52;4.15;;;20.10;49.70;;;;;;5055835;28;20500;-55
2021/10/23 12:50:07;;;;;;;9.38;4.40;;;20.00;49.70;;;;;;5055841;28;20499;-58
2021/10/23 12:52:35;;;;;;;8.55;4.15;;;20.00;49.70;;;;;;5055738;28;20488;-53
2021/10/23 12:55:02;;;;;;;10.35;4.60;;;20.00;49.70;;;;;;5054376;28;20021;-54
2021/10/23 12:57:29;;;;;;;9.35;4.38;;;20.00;49.80;;;;;;5055767;28;20104;-57
2021/10/23 12:59:55;;;;;;;10.57;4.57;;;20.00;49.70;;;;;;5055465;28;20029;-51